Terminal Aerodrome Forecast
Issued by NWS

Home | Current Version | Previous Version | Text Only | Print | Product List | Glossary On
Versions: 1 2 3 4 5 6 7 8 9 10 11 12 13 14 15
000
FTUS45 KGJT 191736
TAFEGE
TAF
KEGE 191736Z 1918/2018 23018G24KT P6SM FEW130 FEW200
     FM191900 24030G45KT P6SM FEW130 FEW200
     FM192300 24025G38KT P6SM FEW100 FEW200
     FM200100 25017G26KT P6SM FEW080 SCT200
     FM200600 22007KT P6SM FEW080 SCT120
     FM201100 VRB04KT P6SM FEW090 FEW150=

USA.gov is the U.S. government's official web portal to all federal, state and local government web resources and services.